sensor_id;sensor_type;location;lat;lon;timestamp;temperature;humidity
8436;DHT22;4255;48.730;9.156;2023-10-08T00:01:52;16.40;1.00
8436;DHT22;4255;48.730;9.156;2023-10-08T00:04:21;16.10;1.00
8436;DHT22;4255;48.730;9.156;2023-10-08T00:06:47;15.90;1.00
8436;DHT22;4255;48.730;9.156;2023-10-08T00:09:13;15.90;1.00
8436;DHT22;4255;48.730;9.156;2023-10-08T00:11:40;15.70;1.00
8436;DHT22;4255;48.730;9.156;2023-10-08T00:14:06;15.60;1.00
8436;DHT22;4255;48.730;9.156;2023-10-08T00:16:36;15.70;1.00
8436;DHT22;4255;48.730;9.156;2023-10-08T00:19:07;15.70;1.00
8436;DHT22;4255;48.730;9.156;2023-10-08T00:21:34;15.80;1.00
8436;DHT22;4255;48.730;9.156;2023-10-08T00:24:01;15.80;1.00
8436;DHT22;4255;48.730;9.156;2023-10-08T00:26:31;15.90;1.00
8436;DHT22;4255;48.730;9.156;2023-10-08T00:28:58;16.10;1.00
8436;DHT22;4255;48.730;9.156;2023-10-08T00:31:25;16.30;1.00
8436;DHT22;4255;48.730;9.156;2023-10-08T00:33:56;16.40;1.00
8436;DHT22;4255;48.730;9.156;2023-10-08T00:36:22;16.40;1.00
8436;DHT22;4255;48.730;9.156;2023-10-08T00:38:50;16.40;1.00
8436;DHT22;4255;48.730;9.156;2023-10-08T00:41:26;16.50;1.00
8436;DHT22;4255;48.730;9.156;2023-10-08T00:43:56;16.60;1.00
8436;DHT22;4255;48.730;9.156;2023-10-08T00:46:25;16.50;1.00
8436;DHT22;4255;48.730;9.156;2023-10-08T00:49:07;16.40;1.00
8436;DHT22;4255;48.730;9.156;2023-10-08T00:51:45;16.60;1.00
8436;DHT22;4255;48.730;9.156;2023-10-08T00:54:24;16.70;1.00
8436;DHT22;4255;48.730;9.156;2023-10-08T00:56:53;16.70;1.00
8436;DHT22;4255;48.730;9.156;2023-10-08T00:59:24;16.60;1.00
8436;DHT22;4255;48.730;9.156;2023-10-08T01:01:52;16.60;1.00
8436;DHT22;4255;48.730;9.156;2023-10-08T01:04:22;16.60;1.00
8436;DHT22;4255;48.730;9.156;2023-10-08T01:06:57;16.40;1.00
8436;DHT22;4255;48.730;9.156;2023-10-08T01:09:29;16.50;1.00
8436;DHT22;4255;48.730;9.156;2023-10-08T01:12:10;16.50;1.00
8436;DHT22;4255;48.730;9.156;2023-10-08T01:14:45;16.70;1.00
8436;DHT22;4255;48.730;9.156;2023-10-08T01:17:16;16.80;1.00
8436;DHT22;4255;48.730;9.156;2023-10-08T01:19:42;16.80;1.00
8436;DHT22;4255;48.730;9.156;2023-10-08T01:22:11;16.90;1.00
8436;DHT22;4255;48.730;9.156;2023-10-08T01:24:48;16.90;1.00
8436;DHT22;4255;48.730;9.156;2023-10-08T01:27:18;16.80;1.00
8436;DHT22;4255;48.730;9.156;2023-10-08T01:29:51;16.70;1.00
8436;DHT22;4255;48.730;9.156;2023-10-08T01:32:21;16.70;1.00
8436;DHT22;4255;48.730;9.156;2023-10-08T01:34:48;16.70;1.00
8436;DHT22;4255;48.730;9.156;2023-10-08T01:37:15;16.70;1.00
8436;DHT22;4255;48.730;9.156;2023-10-08T01:39:47;16.70;1.00
8436;DHT22;4255;48.730;9.156;2023-10-08T01:42:15;16.60;1.00
8436;DHT22;4255;48.730;9.156;2023-10-08T01:44:49;16.40;1.00
8436;DHT22;4255;48.730;9.156;2023-10-08T01:47:20;16.40;1.00
8436;DHT22;4255;48.730;9.156;2023-10-08T01:49:46;16.40;1.00
8436;DHT22;4255;48.730;9.156;2023-10-08T01:52:14;16.30;1.00
8436;DHT22;4255;48.730;9.156;2023-10-08T01:54:47;16.20;1.00
8436;DHT22;4255;48.730;9.156;2023-10-08T01:57:14;16.10;1.00
8436;DHT22;4255;48.730;9.156;2023-10-08T01:59:40;16.10;1.00
8436;DHT22;4255;48.730;9.156;2023-10-08T02:02:06;16.00;1.00
8436;DHT22;4255;48.730;9.156;2023-10-08T02:04:33;16.00;1.00
8436;DHT22;4255;48.730;9.156;2023-10-08T02:07:03;16.00;1.00
8436;DHT22;4255;48.730;9.156;2023-10-08T02:09:30;16.10;1.00
8436;DHT22;4255;48.730;9.156;2023-10-08T02:11:56;16.20;1.00
8436;DHT22;4255;48.730;9.156;2023-10-08T02:14:22;16.20;1.00
8436;DHT22;4255;48.730;9.156;2023-10-08T02:16:49;16.20;1.00
8436;DHT22;4255;48.730;9.156;2023-10-08T02:19:15;16.00;1.00
8436;DHT22;4255;48.730;9.156;2023-10-08T02:21:44;16.00;1.00
8436;DHT22;4255;48.730;9.156;2023-10-08T02:24:12;15.80;1.00
8436;DHT22;4255;48.730;9.156;2023-10-08T02:26:39;15.80;34.50
8436;DHT22;4255;48.730;9.156;2023-10-08T02:29:05;15.80;72.60
8436;DHT22;4255;48.730;9.156;2023-10-08T02:31:38;15.80;73.70
8436;DHT22;4255;48.730;9.156;2023-10-08T02:34:08;15.60;42.00
8436;DHT22;4255;48.730;9.156;2023-10-08T02:36:36;15.70;15.60
8436;DHT22;4255;48.730;9.156;2023-10-08T02:39:03;15.80;1.00
8436;DHT22;4255;48.730;9.156;2023-10-08T02:41:42;15.90;1.00
8436;DHT22;4255;48.730;9.156;2023-10-08T02:44:11;15.90;1.00
8436;DHT22;4255;48.730;9.156;2023-10-08T02:46:43;15.90;1.00
8436;DHT22;4255;48.730;9.156;2023-10-08T02:49:19;15.90;1.00
8436;DHT22;4255;48.730;9.156;2023-10-08T02:51:52;15.70;1.00
8436;DHT22;4255;48.730;9.156;2023-10-08T02:54:18;15.80;1.00
8436;DHT22;4255;48.730;9.156;2023-10-08T02:56:48;15.80;1.00
8436;DHT22;4255;48.730;9.156;2023-10-08T02:59:17;15.90;1.00
8436;DHT22;4255;48.730;9.156;2023-10-08T03:01:43;15.80;1.00
8436;DHT22;4255;48.730;9.156;2023-10-08T03:04:10;15.90;1.00
8436;DHT22;4255;48.730;9.156;2023-10-08T03:06:45;15.80;1.00
8436;DHT22;4255;48.730;9.156;2023-10-08T03:09:21;15.80;1.00
8436;DHT22;4255;48.730;9.156;2023-10-08T03:11:49;15.70;1.00
8436;DHT22;4255;48.730;9.156;2023-10-08T03:14:15;15.60;99.90
8436;DHT22;4255;48.730;9.156;2023-10-08T03:16:47;15.60;99.90
8436;DHT22;4255;48.730;9.156;2023-10-08T03:19:13;15.50;99.90
8436;DHT22;4255;48.730;9.156;2023-10-08T03:21:39;15.40;99.90
8436;DHT22;4255;48.730;9.156;2023-10-08T03:24:05;15.20;1.00
8436;DHT22;4255;48.730;9.156;2023-10-08T03:26:58;15.20;1.00
8436;DHT22;4255;48.730;9.156;2023-10-08T03:29:46;15.10;1.00
8436;DHT22;4255;48.730;9.156;2023-10-08T03:32:13;15.10;1.00
8436;DHT22;4255;48.730;9.156;2023-10-08T03:34:44;15.10;1.00
8436;DHT22;4255;48.730;9.156;2023-10-08T03:37:13;15.10;1.00
8436;DHT22;4255;48.730;9.156;2023-10-08T03:39:48;15.00;1.00
8436;DHT22;4255;48.730;9.156;2023-10-08T03:42:23;15.00;1.00
8436;DHT22;4255;48.730;9.156;2023-10-08T03:44:52;14.90;1.00
8436;DHT22;4255;48.730;9.156;2023-10-08T03:47:24;14.80;1.00
8436;DHT22;4255;48.730;9.156;2023-10-08T03:49:52;14.70;25.60
8436;DHT22;4255;48.730;9.156;2023-10-08T03:52:19;14.60;99.90
8436;DHT22;4255;48.730;9.156;2023-10-08T03:54:49;14.40;66.80
8436;DHT22;4255;48.730;9.156;2023-10-08T03:57:28;14.40;99.90
8436;DHT22;4255;48.730;9.156;2023-10-08T04:00:10;14.50;1.00
8436;DHT22;4255;48.730;9.156;2023-10-08T04:02:47;14.60;1.00
8436;DHT22;4255;48.730;9.156;2023-10-08T04:05:26;14.70;1.00
8436;DHT22;4255;48.730;9.156;2023-10-08T04:08:09;14.70;1.00
8436;DHT22;4255;48.730;9.156;2023-10-08T04:10:50;14.80;1.00
8436;DHT22;4255;48.730;9.156;2023-10-08T04:13:45;14.70;1.00
8436;DHT22;4255;48.730;9.156;2023-10-08T04:16:14;14.80;1.00
8436;DHT22;4255;48.730;9.156;2023-10-08T04:18:45;14.80;99.90
8436;DHT22;4255;48.730;9.156;2023-10-08T04:21:11;14.90;99.90
8436;DHT22;4255;48.730;9.156;2023-10-08T04:23:39;15.00;99.90
8436;DHT22;4255;48.730;9.156;2023-10-08T04:26:05;15.00;99.90
8436;DHT22;4255;48.730;9.156;2023-10-08T04:28:32;15.00;99.90
8436;DHT22;4255;48.730;9.156;2023-10-08T04:31:01;15.10;99.90
8436;DHT22;4255;48.730;9.156;2023-10-08T04:33:41;15.00;99.90
8436;DHT22;4255;48.730;9.156;2023-10-08T04:36:07;14.90;1.00
8436;DHT22;4255;48.730;9.156;2023-10-08T04:38:33;14.80;1.00
8436;DHT22;4255;48.730;9.156;2023-10-08T04:41:05;14.80;1.00
8436;DHT22;4255;48.730;9.156;2023-10-08T04:43:35;14.70;1.00
8436;DHT22;4255;48.730;9.156;2023-10-08T04:46:03;14.80;1.00
8436;DHT22;4255;48.730;9.156;2023-10-08T04:48:47;14.80;1.00
8436;DHT22;4255;48.730;9.156;2023-10-08T04:51:12;15.00;1.00
8436;DHT22;4255;48.730;9.156;2023-10-08T04:53:39;15.70;35.50
8436;DHT22;4255;48.730;9.156;2023-10-08T04:56:11;16.20;1.00
8436;DHT22;4255;48.730;9.156;2023-10-08T04:58:40;16.70;1.00
8436;DHT22;4255;48.730;9.156;2023-10-08T05:01:07;17.00;1.00
8436;DHT22;4255;48.730;9.156;2023-10-08T05:03:53;17.30;1.00
8436;DHT22;4255;48.730;9.156;2023-10-08T05:06:23;17.50;1.00
8436;DHT22;4255;48.730;9.156;2023-10-08T05:09:02;17.60;1.00
8436;DHT22;4255;48.730;9.156;2023-10-08T05:11:43;17.50;99.90
8436;DHT22;4255;48.730;9.156;2023-10-08T05:14:31;17.50;1.00
8436;DHT22;4255;48.730;9.156;2023-10-08T05:17:01;17.50;1.00
8436;DHT22;4255;48.730;9.156;2023-10-08T05:19:38;17.60;1.00
8436;DHT22;4255;48.730;9.156;2023-10-08T05:22:10;17.60;1.00
8436;DHT22;4255;48.730;9.156;2023-10-08T05:24:57;17.70;1.00
8436;DHT22;4255;48.730;9.156;2023-10-08T05:27:37;17.60;99.90
8436;DHT22;4255;48.730;9.156;2023-10-08T05:30:17;17.70;99.90
8436;DHT22;4255;48.730;9.156;2023-10-08T05:32:57;17.50;99.90
8436;DHT22;4255;48.730;9.156;2023-10-08T05:35:44;17.60;99.90
8436;DHT22;4255;48.730;9.156;2023-10-08T05:38:12;17.50;99.90
8436;DHT22;4255;48.730;9.156;2023-10-08T05:40:57;17.50;99.90
8436;DHT22;4255;48.730;9.156;2023-10-08T05:46:12;17.60;99.90
8436;DHT22;4255;48.730;9.156;2023-10-08T05:49:04;17.60;99.90
8436;DHT22;4255;48.730;9.156;2023-10-08T05:51:34;17.50;99.90
8436;DHT22;4255;48.730;9.156;2023-10-08T05:54:22;17.50;99.90
8436;DHT22;4255;48.730;9.156;2023-10-08T05:56:55;17.50;99.90
8436;DHT22;4255;48.730;9.156;2023-10-08T05:59:44;17.60;99.90
8436;DHT22;4255;48.730;9.156;2023-10-08T06:02:24;17.60;99.90
8436;DHT22;4255;48.730;9.156;2023-10-08T06:07:42;17.20;99.90
8436;DHT22;4255;48.730;9.156;2023-10-08T06:10:21;16.90;99.90
8436;DHT22;4255;48.730;9.156;2023-10-08T06:15:45;16.60;99.90
8436;DHT22;4255;48.730;9.156;2023-10-08T06:18:18;16.30;99.90
8436;DHT22;4255;48.730;9.156;2023-10-08T06:20:45;16.10;99.90
8436;DHT22;4255;48.730;9.156;2023-10-08T06:23:13;16.00;99.90
8436;DHT22;4255;48.730;9.156;2023-10-08T06:25:42;15.80;1.00
8436;DHT22;4255;48.730;9.156;2023-10-08T06:28:15;15.70;1.00
8436;DHT22;4255;48.730;9.156;2023-10-08T06:30:45;15.70;1.00
8436;DHT22;4255;48.730;9.156;2023-10-08T06:33:10;15.60;1.00
8436;DHT22;4255;48.730;9.156;2023-10-08T06:35:36;15.70;1.00
8436;DHT22;4255;48.730;9.156;2023-10-08T06:38:03;15.60;1.00
8436;DHT22;4255;48.730;9.156;2023-10-08T06:40:40;15.50;99.90
8436;DHT22;4255;48.730;9.156;2023-10-08T06:43:08;15.60;1.00
8436;DHT22;4255;48.730;9.156;2023-10-08T06:45:51;15.50;99.90
8436;DHT22;4255;48.730;9.156;2023-10-08T06:48:19;15.60;23.60
8436;DHT22;4255;48.730;9.156;2023-10-08T06:50:50;15.60;99.90
8436;DHT22;4255;48.730;9.156;2023-10-08T06:53:17;15.70;99.90
8436;DHT22;4255;48.730;9.156;2023-10-08T06:55:47;15.80;1.00
8436;DHT22;4255;48.730;9.156;2023-10-08T06:58:25;15.80;51.10
8436;DHT22;4255;48.730;9.156;2023-10-08T07:00:52;15.90;1.00
8436;DHT22;4255;48.730;9.156;2023-10-08T07:03:20;16.00;1.00
8436;DHT22;4255;48.730;9.156;2023-10-08T07:05:51;16.10;1.00
8436;DHT22;4255;48.730;9.156;2023-10-08T07:08:24;16.20;34.30
8436;DHT22;4255;48.730;9.156;2023-10-08T07:10:51;16.20;6.70
8436;DHT22;4255;48.730;9.156;2023-10-08T07:13:18;16.20;1.00
8436;DHT22;4255;48.730;9.156;2023-10-08T07:15:45;16.30;1.00
8436;DHT22;4255;48.730;9.156;2023-10-08T07:18:11;16.50;1.00
8436;DHT22;4255;48.730;9.156;2023-10-08T07:20:44;16.70;1.00
8436;DHT22;4255;48.730;9.156;2023-10-08T07:23:11;17.00;1.00
8436;DHT22;4255;48.730;9.156;2023-10-08T07:25:54;17.30;99.90
8436;DHT22;4255;48.730;9.156;2023-10-08T07:28:27;17.60;99.90
8436;DHT22;4255;48.730;9.156;2023-10-08T07:30:55;17.90;99.90
8436;DHT22;4255;48.730;9.156;2023-10-08T07:33:20;18.10;99.90
8436;DHT22;4255;48.730;9.156;2023-10-08T07:35:51;18.30;99.90
8436;DHT22;4255;48.730;9.156;2023-10-08T07:38:20;18.50;99.90
8436;DHT22;4255;48.730;9.156;2023-10-08T07:40:47;18.80;99.90
8436;DHT22;4255;48.730;9.156;2023-10-08T07:43:13;19.20;99.90
8436;DHT22;4255;48.730;9.156;2023-10-08T07:45:40;19.40;99.90
8436;DHT22;4255;48.730;9.156;2023-10-08T07:48:11;19.50;99.90
8436;DHT22;4255;48.730;9.156;2023-10-08T07:50:41;19.50;99.90
8436;DHT22;4255;48.730;9.156;2023-10-08T07:53:07;19.60;99.90
8436;DHT22;4255;48.730;9.156;2023-10-08T07:55:35;19.60;99.90
8436;DHT22;4255;48.730;9.156;2023-10-08T07:58:03;19.70;99.90
8436;DHT22;4255;48.730;9.156;2023-10-08T08:00:35;19.80;99.90
8436;DHT22;4255;48.730;9.156;2023-10-08T08:03:04;19.90;71.00
8436;DHT22;4255;48.730;9.156;2023-10-08T08:05:30;20.00;99.30
8436;DHT22;4255;48.730;9.156;2023-10-08T08:07:57;19.80;72.00
8436;DHT22;4255;48.730;9.156;2023-10-08T08:10:25;19.80;84.80
8436;DHT22;4255;48.730;9.156;2023-10-08T08:12:51;19.80;75.00
8436;DHT22;4255;48.730;9.156;2023-10-08T08:15:22;19.80;99.90
8436;DHT22;4255;48.730;9.156;2023-10-08T08:17:48;19.80;99.90
8436;DHT22;4255;48.730;9.156;2023-10-08T08:20:14;19.70;99.90
8436;DHT22;4255;48.730;9.156;2023-10-08T08:22:43;19.60;99.90
8436;DHT22;4255;48.730;9.156;2023-10-08T08:25:19;19.60;99.90
8436;DHT22;4255;48.730;9.156;2023-10-08T08:28:08;19.80;99.90
8436;DHT22;4255;48.730;9.156;2023-10-08T08:30:43;20.00;99.90
8436;DHT22;4255;48.730;9.156;2023-10-08T08:33:12;20.10;99.90
8436;DHT22;4255;48.730;9.156;2023-10-08T08:35:39;20.30;99.90
8436;DHT22;4255;48.730;9.156;2023-10-08T08:38:04;20.50;38.90
8436;DHT22;4255;48.730;9.156;2023-10-08T08:40:31;20.80;18.20
8436;DHT22;4255;48.730;9.156;2023-10-08T08:42:59;21.00;1.30
8436;DHT22;4255;48.730;9.156;2023-10-08T08:45:28;21.00;1.00
8436;DHT22;4255;48.730;9.156;2023-10-08T08:47:58;21.00;1.00
8436;DHT22;4255;48.730;9.156;2023-10-08T08:50:25;21.10;1.00
8436;DHT22;4255;48.730;9.156;2023-10-08T08:52:52;21.10;1.00
8436;DHT22;4255;48.730;9.156;2023-10-08T08:55:18;21.10;1.00
8436;DHT22;4255;48.730;9.156;2023-10-08T08:57:50;21.00;1.00
8436;DHT22;4255;48.730;9.156;2023-10-08T09:00:18;20.90;1.00
8436;DHT22;4255;48.730;9.156;2023-10-08T09:02:48;20.90;1.00
8436;DHT22;4255;48.730;9.156;2023-10-08T09:05:14;20.90;1.00
8436;DHT22;4255;48.730;9.156;2023-10-08T09:07:57;20.80;1.00
8436;DHT22;4255;48.730;9.156;2023-10-08T09:10:24;20.90;1.00
8436;DHT22;4255;48.730;9.156;2023-10-08T09:12:53;20.90;1.00
8436;DHT22;4255;48.730;9.156;2023-10-08T09:15:20;21.00;1.00
8436;DHT22;4255;48.730;9.156;2023-10-08T09:17:48;21.10;1.00
8436;DHT22;4255;48.730;9.156;2023-10-08T09:20:15;21.40;1.00
8436;DHT22;4255;48.730;9.156;2023-10-08T09:22:41;21.60;1.00
8436;DHT22;4255;48.730;9.156;2023-10-08T09:25:07;21.60;1.00
8436;DHT22;4255;48.730;9.156;2023-10-08T09:27:33;21.80;1.00
8436;DHT22;4255;48.730;9.156;2023-10-08T09:30:03;22.00;1.00
8436;DHT22;4255;48.730;9.156;2023-10-08T09:32:33;22.30;1.00
8436;DHT22;4255;48.730;9.156;2023-10-08T09:35:00;22.90;1.00
8436;DHT22;4255;48.730;9.156;2023-10-08T09:37:27;23.20;1.00
8436;DHT22;4255;48.730;9.156;2023-10-08T09:39:54;23.40;1.00
8436;DHT22;4255;48.730;9.156;2023-10-08T09:42:21;23.50;1.00
8436;DHT22;4255;48.730;9.156;2023-10-08T09:44:50;23.80;1.00
8436;DHT22;4255;48.730;9.156;2023-10-08T09:47:22;23.70;1.00
8436;DHT22;4255;48.730;9.156;2023-10-08T09:49:57;23.50;1.00
8436;DHT22;4255;48.730;9.156;2023-10-08T09:52:36;23.30;1.00
8436;DHT22;4255;48.730;9.156;2023-10-08T09:55:08;23.30;1.00
8436;DHT22;4255;48.730;9.156;2023-10-08T09:57:38;23.40;1.00
8436;DHT22;4255;48.730;9.156;2023-10-08T10:00:06;23.60;1.00
8436;DHT22;4255;48.730;9.156;2023-10-08T10:02:41;23.70;1.00
8436;DHT22;4255;48.730;9.156;2023-10-08T10:05:12;23.70;1.00
8436;DHT22;4255;48.730;9.156;2023-10-08T10:07:38;23.70;1.00
8436;DHT22;4255;48.730;9.156;2023-10-08T10:10:31;23.80;1.00
8436;DHT22;4255;48.730;9.156;2023-10-08T10:13:02;24.00;1.00
8436;DHT22;4255;48.730;9.156;2023-10-08T10:15:28;24.10;1.00
8436;DHT22;4255;48.730;9.156;2023-10-08T10:18:12;24.20;1.00
8436;DHT22;4255;48.730;9.156;2023-10-08T10:20:44;24.40;1.00
8436;DHT22;4255;48.730;9.156;2023-10-08T10:23:36;24.50;1.00
8436;DHT22;4255;48.730;9.156;2023-10-08T10:26:03;24.50;1.00
8436;DHT22;4255;48.730;9.156;2023-10-08T10:28:30;24.60;1.00
8436;DHT22;4255;48.730;9.156;2023-10-08T10:30:56;24.70;1.00
8436;DHT22;4255;48.730;9.156;2023-10-08T10:36:27;24.50;1.00
8436;DHT22;4255;48.730;9.156;2023-10-08T10:38:57;24.30;1.00
8436;DHT22;4255;48.730;9.156;2023-10-08T10:41:22;24.60;1.00
8436;DHT22;4255;48.730;9.156;2023-10-08T10:43:48;24.70;1.00
8436;DHT22;4255;48.730;9.156;2023-10-08T10:46:18;25.00;1.00
8436;DHT22;4255;48.730;9.156;2023-10-08T10:48:56;25.10;1.00
8436;DHT22;4255;48.730;9.156;2023-10-08T10:51:43;25.10;1.00
8436;DHT22;4255;48.730;9.156;2023-10-08T10:54:09;25.20;1.00
8436;DHT22;4255;48.730;9.156;2023-10-08T10:56:45;25.30;1.00
8436;DHT22;4255;48.730;9.156;2023-10-08T10:59:13;25.40;1.00
8436;DHT22;4255;48.730;9.156;2023-10-08T11:01:50;25.60;1.00
8436;DHT22;4255;48.730;9.156;2023-10-08T11:04:31;25.70;1.00
8436;DHT22;4255;48.730;9.156;2023-10-08T11:06:57;25.90;1.00
8436;DHT22;4255;48.730;9.156;2023-10-08T11:09:26;25.70;1.00
8436;DHT22;4255;48.730;9.156;2023-10-08T11:12:07;25.60;1.00
8436;DHT22;4255;48.730;9.156;2023-10-08T11:14:40;25.50;1.00
8436;DHT22;4255;48.730;9.156;2023-10-08T11:19:37;25.50;1.00
8436;DHT22;4255;48.730;9.156;2023-10-08T11:22:02;25.60;1.00
8436;DHT22;4255;48.730;9.156;2023-10-08T11:24:29;25.40;1.00
8436;DHT22;4255;48.730;9.156;2023-10-08T11:26:55;25.40;1.00
8436;DHT22;4255;48.730;9.156;2023-10-08T11:29:42;25.10;1.00
8436;DHT22;4255;48.730;9.156;2023-10-08T11:32:08;25.20;1.00
8436;DHT22;4255;48.730;9.156;2023-10-08T11:34:41;25.40;1.00
8436;DHT22;4255;48.730;9.156;2023-10-08T11:37:07;25.40;1.00
8436;DHT22;4255;48.730;9.156;2023-10-08T11:39:45;25.50;1.00
8436;DHT22;4255;48.730;9.156;2023-10-08T11:42:11;25.50;1.00
8436;DHT22;4255;48.730;9.156;2023-10-08T11:44:57;25.60;1.00
8436;DHT22;4255;48.730;9.156;2023-10-08T11:47:31;25.70;1.00
8436;DHT22;4255;48.730;9.156;2023-10-08T11:50:01;25.80;1.00
8436;DHT22;4255;48.730;9.156;2023-10-08T11:52:37;25.70;1.00
8436;DHT22;4255;48.730;9.156;2023-10-08T11:55:10;25.70;1.00
8436;DHT22;4255;48.730;9.156;2023-10-08T11:57:44;25.70;1.00
8436;DHT22;4255;48.730;9.156;2023-10-08T12:00:13;26.00;1.00
8436;DHT22;4255;48.730;9.156;2023-10-08T12:02:49;26.10;1.00
8436;DHT22;4255;48.730;9.156;2023-10-08T12:05:15;26.20;1.00
8436;DHT22;4255;48.730;9.156;2023-10-08T12:07:50;26.20;1.00
8436;DHT22;4255;48.730;9.156;2023-10-08T12:10:17;26.30;1.00
8436;DHT22;4255;48.730;9.156;2023-10-08T12:12:50;26.40;1.00
8436;DHT22;4255;48.730;9.156;2023-10-08T12:15:25;26.50;1.00
8436;DHT22;4255;48.730;9.156;2023-10-08T12:18:04;26.10;1.00
8436;DHT22;4255;48.730;9.156;2023-10-08T12:20:48;26.10;1.00
8436;DHT22;4255;48.730;9.156;2023-10-08T12:23:14;26.20;1.00
8436;DHT22;4255;48.730;9.156;2023-10-08T12:25:55;26.40;1.00
8436;DHT22;4255;48.730;9.156;2023-10-08T12:28:25;26.30;1.00
8436;DHT22;4255;48.730;9.156;2023-10-08T12:30:53;26.40;1.00
8436;DHT22;4255;48.730;9.156;2023-10-08T12:33:19;26.70;1.00
8436;DHT22;4255;48.730;9.156;2023-10-08T12:35:46;26.90;1.00
8436;DHT22;4255;48.730;9.156;2023-10-08T12:38:13;26.80;1.00
8436;DHT22;4255;48.730;9.156;2023-10-08T12:40:40;27.00;1.00
8436;DHT22;4255;48.730;9.156;2023-10-08T12:43:22;26.90;1.00
8436;DHT22;4255;48.730;9.156;2023-10-08T12:45:49;27.00;1.00
8436;DHT22;4255;48.730;9.156;2023-10-08T12:48:24;27.00;1.00
8436;DHT22;4255;48.730;9.156;2023-10-08T12:50:51;27.00;1.00
8436;DHT22;4255;48.730;9.156;2023-10-08T12:53:24;26.90;1.00
8436;DHT22;4255;48.730;9.156;2023-10-08T12:56:03;27.10;1.00
8436;DHT22;4255;48.730;9.156;2023-10-08T12:58:34;27.20;1.00
8436;DHT22;4255;48.730;9.156;2023-10-08T13:01:16;27.30;1.00
8436;DHT22;4255;48.730;9.156;2023-10-08T13:03:46;27.20;1.00
8436;DHT22;4255;48.730;9.156;2023-10-08T13:06:16;27.10;1.00
8436;DHT22;4255;48.730;9.156;2023-10-08T13:08:49;27.20;1.00
8436;DHT22;4255;48.730;9.156;2023-10-08T13:11:17;27.40;1.00
8436;DHT22;4255;48.730;9.156;2023-10-08T13:13:51;27.40;1.00
8436;DHT22;4255;48.730;9.156;2023-10-08T13:16:20;27.40;1.00
8436;DHT22;4255;48.730;9.156;2023-10-08T13:18:49;27.40;1.00
8436;DHT22;4255;48.730;9.156;2023-10-08T13:21:15;27.40;1.00
8436;DHT22;4255;48.730;9.156;2023-10-08T13:23:42;27.50;1.00
8436;DHT22;4255;48.730;9.156;2023-10-08T13:26:07;27.60;1.00
8436;DHT22;4255;48.730;9.156;2023-10-08T13:28:34;27.50;1.00
8436;DHT22;4255;48.730;9.156;2023-10-08T13:31:02;27.40;1.00
8436;DHT22;4255;48.730;9.156;2023-10-08T13:33:38;27.30;1.00
8436;DHT22;4255;48.730;9.156;2023-10-08T13:36:09;27.00;1.00
8436;DHT22;4255;48.730;9.156;2023-10-08T13:38:35;27.40;1.00
8436;DHT22;4255;48.730;9.156;2023-10-08T13:41:04;27.60;1.00
8436;DHT22;4255;48.730;9.156;2023-10-08T13:43:47;27.70;1.00
8436;DHT22;4255;48.730;9.156;2023-10-08T13:46:18;27.40;99.90
8436;DHT22;4255;48.730;9.156;2023-10-08T13:48:47;27.40;99.90
8436;DHT22;4255;48.730;9.156;2023-10-08T13:51:17;27.30;99.90
8436;DHT22;4255;48.730;9.156;2023-10-08T13:56:22;27.20;99.90
8436;DHT22;4255;48.730;9.156;2023-10-08T13:58:55;27.30;99.90
8436;DHT22;4255;48.730;9.156;2023-10-08T14:01:37;27.20;99.90
8436;DHT22;4255;48.730;9.156;2023-10-08T14:04:04;27.20;99.90
8436;DHT22;4255;48.730;9.156;2023-10-08T14:06:34;27.20;99.90
8436;DHT22;4255;48.730;9.156;2023-10-08T14:09:00;27.20;99.90
8436;DHT22;4255;48.730;9.156;2023-10-08T14:11:27;27.30;99.90
8436;DHT22;4255;48.730;9.156;2023-10-08T14:13:59;27.30;99.90
8436;DHT22;4255;48.730;9.156;2023-10-08T14:16:28;27.40;99.90
8436;DHT22;4255;48.730;9.156;2023-10-08T14:18:57;27.30;99.90
8436;DHT22;4255;48.730;9.156;2023-10-08T14:21:26;27.20;99.90
8436;DHT22;4255;48.730;9.156;2023-10-08T14:23:56;27.00;99.90
8436;DHT22;4255;48.730;9.156;2023-10-08T14:26:28;26.80;99.90
8436;DHT22;4255;48.730;9.156;2023-10-08T14:29:00;26.50;99.90
8436;DHT22;4255;48.730;9.156;2023-10-08T14:31:33;26.40;99.90
8436;DHT22;4255;48.730;9.156;2023-10-08T14:33:59;26.20;99.90
8436;DHT22;4255;48.730;9.156;2023-10-08T14:36:34;26.30;99.90
8436;DHT22;4255;48.730;9.156;2023-10-08T14:39:19;26.20;99.90
8436;DHT22;4255;48.730;9.156;2023-10-08T14:42:03;26.30;99.90
8436;DHT22;4255;48.730;9.156;2023-10-08T14:44:48;26.20;99.90
8436;DHT22;4255;48.730;9.156;2023-10-08T14:47:16;26.30;99.90
8436;DHT22;4255;48.730;9.156;2023-10-08T14:49:42;26.20;99.90
8436;DHT22;4255;48.730;9.156;2023-10-08T14:52:09;26.00;99.90
8436;DHT22;4255;48.730;9.156;2023-10-08T14:54:34;25.90;99.90
8436;DHT22;4255;48.730;9.156;2023-10-08T14:57:00;25.70;99.90
8436;DHT22;4255;48.730;9.156;2023-10-08T14:59:28;25.50;99.90
8436;DHT22;4255;48.730;9.156;2023-10-08T15:01:56;25.50;99.90
8436;DHT22;4255;48.730;9.156;2023-10-08T15:04:21;25.50;99.90
8436;DHT22;4255;48.730;9.156;2023-10-08T15:06:48;25.60;99.90
8436;DHT22;4255;48.730;9.156;2023-10-08T15:09:15;25.40;99.90
8436;DHT22;4255;48.730;9.156;2023-10-08T15:11:47;25.10;99.90
8436;DHT22;4255;48.730;9.156;2023-10-08T15:14:13;25.10;99.90
8436;DHT22;4255;48.730;9.156;2023-10-08T15:16:41;24.90;99.90
8436;DHT22;4255;48.730;9.156;2023-10-08T15:19:07;24.80;1.00
8436;DHT22;4255;48.730;9.156;2023-10-08T15:21:38;24.90;1.00
8436;DHT22;4255;48.730;9.156;2023-10-08T15:24:05;24.80;1.00
8436;DHT22;4255;48.730;9.156;2023-10-08T15:26:34;24.70;1.00
8436;DHT22;4255;48.730;9.156;2023-10-08T15:29:00;24.60;1.00
8436;DHT22;4255;48.730;9.156;2023-10-08T15:31:28;24.70;1.00
8436;DHT22;4255;48.730;9.156;2023-10-08T15:33:53;24.60;1.00
8436;DHT22;4255;48.730;9.156;2023-10-08T15:36:19;24.70;1.00
8436;DHT22;4255;48.730;9.156;2023-10-08T15:38:45;24.70;1.00
8436;DHT22;4255;48.730;9.156;2023-10-08T15:41:10;24.60;1.00
8436;DHT22;4255;48.730;9.156;2023-10-08T15:43:37;24.70;1.00
8436;DHT22;4255;48.730;9.156;2023-10-08T15:46:02;24.60;1.00
8436;DHT22;4255;48.730;9.156;2023-10-08T15:48:31;24.50;1.00
8436;DHT22;4255;48.730;9.156;2023-10-08T15:50:56;24.60;1.00
8436;DHT22;4255;48.730;9.156;2023-10-08T15:53:22;24.90;1.00
8436;DHT22;4255;48.730;9.156;2023-10-08T15:55:48;25.00;1.00
8436;DHT22;4255;48.730;9.156;2023-10-08T15:58:13;25.10;1.00
8436;DHT22;4255;48.730;9.156;2023-10-08T16:00:39;24.80;1.00
8436;DHT22;4255;48.730;9.156;2023-10-08T16:03:04;24.90;1.00
8436;DHT22;4255;48.730;9.156;2023-10-08T16:05:34;25.10;1.00
8436;DHT22;4255;48.730;9.156;2023-10-08T16:08:00;25.40;1.00
8436;DHT22;4255;48.730;9.156;2023-10-08T16:10:27;25.40;1.00
8436;DHT22;4255;48.730;9.156;2023-10-08T16:12:53;25.40;1.00
8436;DHT22;4255;48.730;9.156;2023-10-08T16:15:19;25.30;1.00
8436;DHT22;4255;48.730;9.156;2023-10-08T16:17:47;25.20;1.00
8436;DHT22;4255;48.730;9.156;2023-10-08T16:20:13;24.90;1.00
8436;DHT22;4255;48.730;9.156;2023-10-08T16:22:42;24.80;1.00
8436;DHT22;4255;48.730;9.156;2023-10-08T16:25:09;24.80;1.00
8436;DHT22;4255;48.730;9.156;2023-10-08T16:27:41;24.90;1.00
8436;DHT22;4255;48.730;9.156;2023-10-08T16:32:42;25.00;1.00
8436;DHT22;4255;48.730;9.156;2023-10-08T16:35:11;25.00;1.00
8436;DHT22;4255;48.730;9.156;2023-10-08T16:37:37;25.00;1.00
8436;DHT22;4255;48.730;9.156;2023-10-08T16:40:04;25.00;1.00
8436;DHT22;4255;48.730;9.156;2023-10-08T16:42:30;24.90;1.00
8436;DHT22;4255;48.730;9.156;2023-10-08T16:44:56;24.80;1.00
8436;DHT22;4255;48.730;9.156;2023-10-08T16:47:22;24.70;1.00
8436;DHT22;4255;48.730;9.156;2023-10-08T16:49:47;24.50;1.00
8436;DHT22;4255;48.730;9.156;2023-10-08T16:52:13;24.40;1.00
8436;DHT22;4255;48.730;9.156;2023-10-08T16:54:38;24.20;1.00